This is the latest recevied weather packets stored in our database for station/object AI5BL. If no packets are shown the sender has not sent any weather packets the latest 10 day(s).
| Time | Temp. | Humidity | Pressure | Rain* | Wind** | Luminosity | Snow |
|---|---|---|---|---|---|---|---|
| 1788112275 | 31.67° C | 63% | 1020.8 hPa | 0 mm | - | 871 W/m² | - |
| 1788111970 | 30.56° C | 66% | 1020.7 hPa | 0 mm | - | 160 W/m² | - |
| 1788111666 | 31.67° C | 65% | 1020.9 hPa | 0 mm | - | 138 W/m² | - |
| 1788111361 | 30.56° C | 67% | 1020.9 hPa | 0 mm | - | 292 W/m² | - |
| 1788111056 | 31.11° C | 65% | 1021.1 hPa | 0 mm | - | 152 W/m² | - |
| 1788110753 | 31.11° C | 65% | 1021.2 hPa | 0 mm | - | 151 W/m² | - |
| 1788110449 | 31.11° C | 66% | 1021.1 hPa | 0 mm | - | 168 W/m² | - |
| 1788110144 | 32.78° C | 61% | 1021.2 hPa | 0 mm | - | 163 W/m² | - |
| 1788109839 | 31.67° C | 62% | 1021.2 hPa | 0 mm | - | 905 W/m² | - |
| 1788109538 | 31.11° C | 68% | 1021.3 hPa | 0 mm | - | 1000 W/m² | - |
| 1788109237 | 31.11° C | 66% | 1021.3 hPa | 0 mm | - | 208 W/m² | - |
| 1788108932 | 31.11° C | 65% | 1021.3 hPa | 0 mm | - | 193 W/m² | - |
| 1788108628 | 31.67° C | 63% | 1021.3 hPa | 0 mm | - | 215 W/m² | - |
| 1788108324 | 31.11° C | 72% | 1021.4 hPa | 0 mm | - | 851 W/m² | - |
| 1788108020 | 31.11° C | 68% | 1021.4 hPa | 0 mm | - | 273 W/m² | - |
| 1788107717 | 30.56° C | 67% | 1021.4 hPa | 0 mm | - | 206 W/m² | - |
| 1788107417 | 31.67° C | 65% | 1021.4 hPa | 0 mm | - | 201 W/m² | - |
| 1788107113 | 30.56° C | 69% | 1021.6 hPa | 0 mm | - | 309 W/m² | - |
| 1788106812 | 30° C | 69% | 1021.6 hPa | 0 mm | - | 494 W/m² | - |
| 1788106522 | 30.56° C | 69% | 1021.6 hPa | 0 mm | - | 160 W/m² | - |
| 1788106201 | 30.56° C | 68% | 1021.6 hPa | 0 mm | - | 440 W/m² | - |
| 1788105899 | 30° C | 71% | 1021.5 hPa | 0 mm | - | 836 W/m² | - |
| 1788105593 | 30.56° C | 71% | 1021.7 hPa | 0 mm | - | 120 W/m² | - |
| 1788105289 | 30.56° C | 69% | 1021.7 hPa | 0 mm | - | 190 W/m² | - |
| 1788104984 | 30.56° C | 69% | 1021.9 hPa | 0 mm | - | 738 W/m² | - |
* Rain latest hour (hover to see other rain measurements)
** Current wind speed in m/s (hover to see current wind gust speed)